Time;durP1;ratioP1;P1;durP2;ratioP2;P2;SDS_P1;SDS_P2;PMS_P1;PMS_P2;Temp;Humidity;BMP_temperature;BMP_pressure;BME280_temperature;BME280_humidity;BME280_pressure;Samples;Min_cycle;Max_cycle;Signal;HPM_P1;HPM_P2
2023/06/22 00:00:46;;;;;;;11.77;4.85;;;17.60;6.10;;;;;;5075486;28;20070;-58
2023/06/22 00:03:12;;;;;;;11.18;5.13;;;17.50;17.30;;;;;;5075214;28;20025;-58
2023/06/22 00:05:38;;;;;;;18.73;5.88;;;17.50;12.20;;;;;;5075403;28;20020;-56
2023/06/22 00:08:04;;;;;;;17.33;5.53;;;17.50;13.30;;;;;;5075312;28;20418;-57
2023/06/22 00:10:30;;;;;;;15.57;6.18;;;17.50;17.10;;;;;;5075128;28;20028;-57
2023/06/22 00:12:56;;;;;;;14.98;6.35;;;17.50;15.00;;;;;;5075408;28;20082;-57
2023/06/22 00:15:22;;;;;;;16.23;5.47;;;17.50;17.00;;;;;;5074919;28;20414;-58
2023/06/22 00:21:09;;;;;;;17.60;5.55;;;17.60;19.00;;;;;;5074757;28;20375;-56
2023/06/22 00:23:35;;;;;;;13.63;6.60;;;17.60;15.40;;;;;;5074532;28;20032;-57
2023/06/22 00:26:00;;;;;;;19.25;6.15;;;17.70;15.30;;;;;;5074000;28;20678;-58
2023/06/22 00:28:26;;;;;;;19.75;6.75;;;17.70;10.00;;;;;;5073597;28;20050;-58
2023/06/22 00:30:52;;;;;;;19.98;5.95;;;17.70;10.40;;;;;;5074013;28;20399;-56
2023/06/22 00:33:17;;;;;;;17.15;7.20;;;17.70;12.50;;;;;;5073810;28;20029;-57
2023/06/22 00:35:43;;;;;;;14.63;6.80;;;17.70;13.10;;;;;;5073457;28;20441;-57
2023/06/22 00:38:09;;;;;;;25.38;6.45;;;17.70;13.60;;;;;;5072031;28;20078;-58
2023/06/22 00:40:35;;;;;;;14.77;6.22;;;17.70;7.00;;;;;;5072346;28;20023;-58
2023/06/22 00:43:01;;;;;;;17.88;5.80;;;17.70;8.30;;;;;;5073813;28;20422;-55
2023/06/22 00:45:27;;;;;;;18.38;6.20;;;17.70;2.50;;;;;;5074339;28;20030;-55
2023/06/22 00:47:55;;;;;;;13.95;6.03;;;17.60;5.50;;;;;;5074392;28;20029;-57
2023/06/22 00:50:22;;;;;;;16.67;5.15;;;17.70;6.40;;;;;;5074160;28;20021;-54
2023/06/22 00:52:53;;;;;;;13.40;5.63;;;17.60;7.60;;;;;;5074444;28;20025;-58
2023/06/22 00:55:20;;;;;;;10.98;5.07;;;17.60;12.60;;;;;;5073939;28;20021;-58
2023/06/22 00:58:10;;;;;;;17.27;5.63;;;17.50;17.70;;;;;;5074073;28;20045;-55
2023/06/22 01:00:36;;;;;;;19.33;6.35;;;17.50;16.70;;;;;;5074482;28;20024;-56
2023/06/22 01:03:03;;;;;;;18.23;6.28;;;17.50;20.50;;;;;;5074329;28;20052;-58
2023/06/22 01:05:31;;;;;;;18.17;5.60;;;17.50;20.70;;;;;;5074035;28;20050;-58
2023/06/22 01:08:12;;;;;;;21.38;6.05;;;17.50;11.10;;;;;;5073700;28;20545;-58
2023/06/22 01:10:47;;;;;;;15.63;6.15;;;17.50;14.20;;;;;;5073680;28;20025;-58
2023/06/22 01:13:21;;;;;;;18.52;5.97;;;17.50;14.70;;;;;;5073750;28;20025;-58
2023/06/22 01:15:56;;;;;;;13.07;5.82;;;17.50;18.20;;;;;;5073894;28;20020;-57
2023/06/22 01:18:25;;;;;;;17.98;5.68;;;17.50;24.40;;;;;;5073423;28;20027;-56
2023/06/22 01:20:55;;;;;;;14.73;6.55;;;17.50;20.30;;;;;;5073775;28;20491;-59
2023/06/22 01:24:03;;;;;;;16.80;5.85;;;17.40;24.20;;;;;;5073471;28;20031;-57
2023/06/22 01:26:59;;;;;;;19.13;6.35;;;17.40;27.60;;;;;;5072123;28;20041;-57
2023/06/22 01:29:26;;;;;;;12.10;6.53;;;17.30;27.10;;;;;;5073241;28;20025;-58
2023/06/22 01:31:56;;;;;;;18.13;6.43;;;17.30;34.10;;;;;;5073777;28;20086;-57
2023/06/22 01:34:23;;;;;;;20.02;6.80;;;17.30;32.10;;;;;;5073300;28;20027;-57
2023/06/22 01:36:51;;;;;;;15.20;6.05;;;17.30;31.70;;;;;;5073382;28;20024;-58
2023/06/22 01:39:18;;;;;;;13.38;6.22;;;17.30;25.90;;;;;;5073389;28;20115;-58
2023/06/22 01:41:44;;;;;;;22.85;6.63;;;17.30;23.50;;;;;;5073567;28;20112;-58
2023/06/22 01:44:11;;;;;;;13.40;6.10;;;17.30;26.60;;;;;;5073338;28;20036;-56
2023/06/22 01:46:38;;;;;;;13.48;6.65;;;17.30;32.80;;;;;;5073316;28;20021;-56
2023/06/22 01:49:05;;;;;;;15.48;6.03;;;17.20;36.10;;;;;;5073372;28;20529;-54
2023/06/22 01:51:31;;;;;;;9.18;6.18;;;17.20;37.30;;;;;;5073149;28;20096;-58
2023/06/22 01:53:56;;;;;;;10.93;6.05;;;17.20;38.20;;;;;;5073397;28;20475;-55
2023/06/22 01:56:22;;;;;;;13.55;5.03;;;17.10;35.10;;;;;;5073233;28;20403;-57
2023/06/22 01:59:11;;;;;;;14.02;5.43;;;17.00;43.60;;;;;;5073096;28;20043;-57
2023/06/22 02:01:43;;;;;;;11.13;5.70;;;17.00;46.30;;;;;;5072234;28;20028;-56
2023/06/22 02:04:18;;;;;;;13.55;5.80;;;17.00;50.40;;;;;;5072694;28;20082;-56
2023/06/22 02:06:46;;;;;;;18.83;5.97;;;17.00;49.90;;;;;;5072889;28;20063;-58
2023/06/22 02:09:16;;;;;;;11.48;5.75;;;17.00;49.30;;;;;;5072791;28;20028;-59
2023/06/22 02:11:45;;;;;;;16.08;5.40;;;17.10;42.60;;;;;;5072395;28;20013;-59
2023/06/22 02:14:12;;;;;;;12.18;5.72;;;17.10;31.70;;;;;;5072769;28;20016;-57
2023/06/22 02:16:39;;;;;;;13.02;5.72;;;17.00;38.20;;;;;;5071545;28;20115;-56
2023/06/22 02:19:06;;;;;;;12.90;6.13;;;16.90;44.00;;;;;;5072772;28;20029;-59
2023/06/22 02:21:31;;;;;;;14.35;5.95;;;16.90;45.90;;;;;;5072510;28;20363;-55
2023/06/22 02:23:57;;;;;;;15.70;5.85;;;16.90;40.00;;;;;;5072438;28;20024;-56
2023/06/22 02:26:25;;;;;;;15.52;6.28;;;16.80;45.20;;;;;;5072136;28;20024;-56
2023/06/22 02:28:51;;;;;;;20.23;6.07;;;16.70;53.30;;;;;;5072396;28;20024;-56
2023/06/22 02:31:17;;;;;;;14.80;5.72;;;16.70;55.10;;;;;;5070895;28;20074;-53
2023/06/22 02:33:43;;;;;;;10.75;5.85;;;16.70;46.40;;;;;;5072194;28;20048;-58
2023/06/22 02:36:12;;;;;;;16.05;6.05;;;16.70;50.50;;;;;;5071828;28;20032;-58
2023/06/22 02:38:45;;;;;;;14.25;6.13;;;16.70;49.40;;;;;;5072066;28;20103;-56
2023/06/22 02:41:13;;;;;;;20.15;5.45;;;16.70;44.20;;;;;;5072166;28;20471;-57
2023/06/22 02:43:38;;;;;;;17.33;4.63;;;16.70;38.70;;;;;;5072339;28;20027;-54
2023/06/22 02:46:04;;;;;;;16.13;5.85;;;16.70;31.70;;;;;;5072296;28;20095;-57
2023/06/22 02:48:29;;;;;;;12.68;6.18;;;16.80;35.50;;;;;;5070762;28;20032;-57
2023/06/22 02:50:55;;;;;;;17.35;7.20;;;16.80;33.90;;;;;;5072190;28;20035;-58
2023/06/22 02:53:21;;;;;;;14.80;5.78;;;16.80;39.00;;;;;;5071888;28;20056;-56
2023/06/22 02:55:46;;;;;;;11.25;5.70;;;16.80;43.80;;;;;;5071638;28;20060;-57
2023/06/22 02:58:12;;;;;;;19.23;7.05;;;16.90;50.30;;;;;;5071195;28;20041;-56
2023/06/22 03:00:40;;;;;;;14.25;6.07;;;17.00;61.10;;;;;;5072079;28;20016;-58
2023/06/22 03:03:06;;;;;;;18.50;6.90;;;17.20;62.20;;;;;;5071773;28;20537;-58
2023/06/22 03:05:35;;;;;;;15.27;6.95;;;17.40;56.80;;;;;;5071634;28;20111;-57
2023/06/22 03:08:00;;;;;;;13.18;6.65;;;17.70;44.10;;;;;;5071798;28;20032;-57
2023/06/22 03:10:26;;;;;;;16.05;7.15;;;17.80;37.80;;;;;;5071827;28;20034;-58
2023/06/22 03:12:52;;;;;;;15.07;6.40;;;17.90;28.00;;;;;;5071926;28;20095;-58
2023/06/22 03:15:17;;;;;;;17.38;7.43;;;18.10;21.60;;;;;;5071711;28;20036;-56
2023/06/22 03:17:43;;;;;;;27.60;7.53;;;18.20;19.20;;;;;;5071674;28;20051;-54
2023/06/22 03:20:10;;;;;;;17.63;7.13;;;18.20;16.90;;;;;;5071611;28;20035;-57
2023/06/22 03:22:41;;;;;;;22.95;7.43;;;18.20;15.20;;;;;;5071685;28;20039;-57
2023/06/22 03:25:12;;;;;;;14.55;6.95;;;18.30;12.70;;;;;;5071533;28;20025;-58
2023/06/22 03:27:39;;;;;;;24.65;7.78;;;18.30;12.50;;;;;;5071476;28;20036;-59
2023/06/22 03:30:07;;;;;;;16.75;7.07;;;18.40;8.40;;;;;;5071508;28;20027;-57
2023/06/22 03:32:32;;;;;;;20.63;7.80;;;18.40;4.00;;;;;;5070003;28;20037;-58
2023/06/22 03:35:01;;;;;;;15.48;6.35;;;18.50;1.30;;;;;;5071031;28;20047;-57
2023/06/22 03:37:28;;;;;;;16.92;7.40;;;18.50;1.00;;;;;;5070955;28;20032;-56
2023/06/22 03:39:53;;;;;;;21.60;8.70;;;18.50;1.00;;;;;;5071178;28;20092;-58
2023/06/22 03:42:19;;;;;;;26.25;8.10;;;18.50;1.00;;;;;;5071184;28;20433;-58
2023/06/22 03:44:45;;;;;;;14.38;6.53;;;18.60;1.00;;;;;;5071455;28;20098;-59
2023/06/22 03:47:11;;;;;;;20.52;7.30;;;18.60;1.00;;;;;;5071350;28;20063;-56
2023/06/22 03:49:36;;;;;;;15.55;6.57;;;18.70;1.00;;;;;;5071414;28;20059;-57
2023/06/22 03:52:03;;;;;;;9.52;5.82;;;18.70;1.00;;;;;;5070105;28;20463;-57
2023/06/22 03:54:29;;;;;;;18.27;6.35;;;18.70;1.00;;;;;;5071298;28;20024;-57
2023/06/22 03:56:56;;;;;;;22.63;6.20;;;18.70;1.00;;;;;;5071357;28;20111;-58
2023/06/22 03:59:21;;;;;;;17.92;6.90;;;18.80;1.00;;;;;;5071136;28;20035;-57
2023/06/22 04:01:47;;;;;;;23.60;7.00;;;18.80;1.00;;;;;;5071423;28;20108;-58
2023/06/22 04:04:13;;;;;;;15.50;6.55;;;18.80;1.00;;;;;;5071132;28;20055;-56
2023/06/22 04:06:39;;;;;;;17.95;6.57;;;18.90;1.00;;;;;;5071257;28;20510;-58
2023/06/22 04:09:06;;;;;;;26.73;7.60;;;18.90;1.00;;;;;;5071022;28;20021;-58
2023/06/22 04:11:31;;;;;;;20.52;7.22;;;19.00;1.00;;;;;;5071135;28;20074;-57
2023/06/22 04:13:57;;;;;;;17.77;8.68;;;19.10;1.00;;;;;;5071246;28;20024;-56
2023/06/22 04:16:22;;;;;;;16.50;6.80;;;19.10;1.00;;;;;;5071040;28;20021;-58
2023/06/22 04:18:48;;;;;;;19.83;7.05;;;19.10;1.00;;;;;;5071292;28;20029;-56
2023/06/22 04:21:14;;;;;;;18.13;7.40;;;19.10;1.00;;;;;;5070706;28;20029;-57
2023/06/22 04:23:39;;;;;;;12.73;7.03;;;19.10;1.00;;;;;;5070892;28;20041;-59
2023/06/22 04:26:05;;;;;;;15.77;7.88;;;19.20;1.00;;;;;;5070668;28;20057;-58
2023/06/22 04:28:34;;;;;;;25.23;7.75;;;19.20;1.00;;;;;;5070704;28;20407;-57
2023/06/22 04:31:01;;;;;;;18.33;6.72;;;19.30;1.00;;;;;;5070849;28;20024;-57
2023/06/22 04:33:29;;;;;;;20.58;7.28;;;19.30;1.00;;;;;;5071499;28;20044;-57
2023/06/22 04:35:56;;;;;;;12.27;6.78;;;19.40;1.00;;;;;;5074345;28;20070;-59
2023/06/22 04:38:23;;;;;;;15.30;6.65;;;19.40;1.00;;;;;;5073934;28;20111;-57
2023/06/22 04:40:49;;;;;;;20.58;5.93;;;19.50;1.00;;;;;;5074344;28;20021;-52
2023/06/22 04:43:15;;;;;;;21.80;6.38;;;19.60;1.00;;;;;;5074233;28;20017;-57
2023/06/22 04:45:40;;;;;;;13.50;6.40;;;19.60;1.00;;;;;;5074295;28;20337;-58
2023/06/22 04:48:08;;;;;;;21.30;7.13;;;19.70;1.00;;;;;;5074513;28;20024;-59
2023/06/22 04:50:34;;;;;;;19.50;6.20;;;19.80;1.00;;;;;;5074428;28;20025;-59
2023/06/22 04:52:59;;;;;;;19.58;6.57;;;19.90;1.00;;;;;;5074214;28;20016;-59
2023/06/22 04:55:25;;;;;;;13.07;6.45;;;20.00;1.00;;;;;;5074331;28;20368;-57
2023/06/22 04:57:51;;;;;;;12.05;6.65;;;20.10;1.00;;;;;;5074175;28;20505;-59
2023/06/22 05:00:22;;;;;;;9.55;5.95;;;20.10;1.00;;;;;;5074179;28;20385;-59
2023/06/22 05:02:49;;;;;;;12.50;5.60;;;20.20;1.00;;;;;;5074455;28;20021;-59
2023/06/22 05:05:15;;;;;;;21.38;6.75;;;20.30;1.00;;;;;;5074051;28;20112;-59
2023/06/22 05:07:47;;;;;;;16.58;7.25;;;20.40;1.00;;;;;;5074038;28;20032;-59
2023/06/22 05:10:13;;;;;;;15.68;6.80;;;20.40;1.00;;;;;;5073893;28;20032;-60
2023/06/22 05:12:39;;;;;;;24.80;6.03;;;20.60;1.00;;;;;;5073874;28;20017;-60
2023/06/22 05:15:07;;;;;;;15.50;6.03;;;20.60;1.00;;;;;;5073958;28;20017;-57
2023/06/22 05:17:32;;;;;;;22.10;6.47;;;20.60;1.00;;;;;;5074000;28;20016;-59
2023/06/22 05:19:58;;;;;;;13.80;6.22;;;20.70;1.00;;;;;;5072428;28;20107;-57
2023/06/22 05:22:24;;;;;;;20.70;6.57;;;20.70;1.00;;;;;;5073711;28;20028;-57
2023/06/22 05:24:49;;;;;;;15.43;7.20;;;20.80;1.00;;;;;;5073963;28;20028;-60
2023/06/22 05:27:15;;;;;;;16.95;6.65;;;20.80;1.00;;;;;;5073639;28;20055;-60
2023/06/22 05:29:42;;;;;;;16.10;6.68;;;20.90;99.90;;;;;;5073583;28;20479;-60
2023/06/22 05:32:08;;;;;;;18.48;6.15;;;21.00;99.90;;;;;;5073423;28;20021;-59
2023/06/22 05:34:33;;;;;;;16.50;6.30;;;21.00;99.90;;;;;;5073571;28;20035;-57
2023/06/22 05:36:59;;;;;;;19.92;6.78;;;21.10;99.90;;;;;;5073592;28;20040;-55
2023/06/22 05:39:25;;;;;;;17.38;6.65;;;21.30;99.90;;;;;;5073330;28;20025;-59
2023/06/22 05:41:51;;;;;;;13.57;6.20;;;21.30;99.90;;;;;;5073673;28;20021;-59
2023/06/22 05:44:17;;;;;;;18.55;6.35;;;21.30;99.90;;;;;;5073063;28;20035;-60
2023/06/22 05:46:46;;;;;;;18.13;6.30;;;21.40;99.90;;;;;;5072590;28;20029;-59
2023/06/22 05:49:12;;;;;;;18.35;6.40;;;21.50;99.90;;;;;;5073379;28;20023;-59
2023/06/22 05:51:39;;;;;;;21.20;7.05;;;21.70;99.90;;;;;;5073476;28;20037;-59
2023/06/22 05:54:04;;;;;;;23.20;7.15;;;21.80;99.90;;;;;;5073339;28;20024;-59
2023/06/22 05:56:30;;;;;;;16.73;6.38;;;21.80;99.90;;;;;;5073096;28;20047;-60
2023/06/22 05:58:56;;;;;;;25.10;7.28;;;21.80;99.90;;;;;;5073012;28;20135;-58
2023/06/22 06:01:22;;;;;;;27.80;6.72;;;21.90;99.90;;;;;;5072975;28;20056;-60
2023/06/22 06:03:49;;;;;;;16.02;5.72;;;22.00;99.90;;;;;;5073139;28;20032;-58
2023/06/22 06:06:16;;;;;;;35.45;7.40;;;22.20;99.90;;;;;;5072723;28;20106;-59
2023/06/22 06:08:42;;;;;;;22.33;6.70;;;22.20;73.70;;;;;;5070989;28;20349;-59
2023/06/22 06:11:08;;;;;;;14.45;5.53;;;22.30;55.50;;;;;;5071869;28;20036;-59
2023/06/22 06:13:33;;;;;;;18.15;7.20;;;22.50;1.00;;;;;;5072093;28;20492;-59
2023/06/22 06:15:59;;;;;;;15.77;6.43;;;22.60;1.00;;;;;;5072320;28;20467;-59
2023/06/22 06:18:25;;;;;;;18.63;6.60;;;22.70;99.90;;;;;;5071632;28;20051;-58
2023/06/22 06:20:50;;;;;;;21.90;6.38;;;22.90;99.90;;;;;;5071922;28;20495;-58
2023/06/22 06:23:16;;;;;;;13.18;7.05;;;23.20;99.90;;;;;;5071655;28;20024;-59
2023/06/22 06:25:42;;;;;;;19.45;6.28;;;23.30;99.90;;;;;;5071849;28;20472;-58
2023/06/22 06:28:08;;;;;;;18.77;7.25;;;23.40;27.70;;;;;;5072404;28;20459;-58
2023/06/22 06:30:34;;;;;;;22.73;6.72;;;23.70;99.90;;;;;;5071180;28;20060;-59
2023/06/22 06:33:00;;;;;;;14.63;5.82;;;23.80;1.00;;;;;;5071260;28;20357;-59
2023/06/22 06:35:26;;;;;;;25.17;6.88;;;23.90;99.90;;;;;;5072241;28;20023;-59
2023/06/22 06:37:51;;;;;;;14.30;5.45;;;23.90;99.90;;;;;;5072446;28;20467;-59
2023/06/22 06:40:18;;;;;;;19.77;6.75;;;24.20;1.00;;;;;;5072213;28;20497;-59
2023/06/22 06:42:46;;;;;;;20.30;6.47;;;24.50;1.00;;;;;;5072314;28;20025;-59
2023/06/22 06:45:14;;;;;;;14.32;5.88;;;24.50;99.90;;;;;;5071874;28;20032;-59
2023/06/22 06:47:40;;;;;;;15.20;5.93;;;24.50;99.90;;;;;;5072367;28;20055;-59
2023/06/22 06:50:07;;;;;;;12.65;4.80;;;24.50;1.00;;;;;;5072256;28;20021;-59
2023/06/22 06:52:32;;;;;;;28.33;6.20;;;24.50;1.00;;;;;;5072172;28;20135;-59
2023/06/22 06:54:59;;;;;;;20.67;6.53;;;24.30;1.00;;;;;;5072113;28;20527;-59
2023/06/22 06:57:28;;;;;;;17.33;5.93;;;24.20;1.00;;;;;;5071571;28;20364;-57
2023/06/22 06:59:57;;;;;;;21.25;6.32;;;24.00;1.00;;;;;;5072029;28;20154;-58
2023/06/22 07:02:23;;;;;;;23.17;6.82;;;24.00;1.00;;;;;;5071909;28;20345;-59
2023/06/22 07:04:49;;;;;;;17.13;5.80;;;24.00;99.90;;;;;;5071973;28;20028;-59
2023/06/22 07:07:16;;;;;;;11.40;5.43;;;24.10;94.30;;;;;;5071561;28;20028;-58
2023/06/22 07:09:42;;;;;;;13.55;5.78;;;24.10;71.50;;;;;;5071793;28;20059;-57
2023/06/22 07:12:08;;;;;;;21.45;6.53;;;24.10;99.90;;;;;;5071650;28;20102;-59
2023/06/22 07:14:34;;;;;;;14.75;5.20;;;24.30;1.00;;;;;;5071698;28;20501;-60
2023/06/22 07:16:59;;;;;;;17.92;5.93;;;24.50;1.00;;;;;;5071592;28;20021;-59
2023/06/22 07:19:26;;;;;;;27.50;7.18;;;24.60;99.90;;;;;;5071743;28;20368;-59
2023/06/22 07:21:53;;;;;;;19.73;6.03;;;24.80;99.90;;;;;;5071857;28;20031;-58
2023/06/22 07:24:20;;;;;;;17.65;6.43;;;24.70;99.90;;;;;;5069949;28;20398;-59
2023/06/22 07:26:49;;;;;;;26.10;6.25;;;24.80;99.90;;;;;;5071492;28;20025;-59
2023/06/22 07:29:17;;;;;;;16.20;6.50;;;24.90;99.90;;;;;;5071513;28;20020;-59
2023/06/22 07:31:42;;;;;;;18.70;6.75;;;24.60;88.80;;;;;;5071684;28;20074;-60
2023/06/22 07:34:08;;;;;;;17.05;6.45;;;24.40;99.90;;;;;;5071404;28;20020;-59
2023/06/22 07:36:35;;;;;;;23.40;6.72;;;24.40;99.90;;;;;;5071301;28;20033;-59
2023/06/22 07:39:02;;;;;;;15.95;6.35;;;24.60;99.90;;;;;;5071686;28;20035;-59
2023/06/22 07:41:28;;;;;;;16.88;6.90;;;24.70;99.90;;;;;;5071433;28;20112;-59
2023/06/22 07:43:54;;;;;;;22.27;6.10;;;25.00;99.90;;;;;;5071568;28;20103;-59
2023/06/22 07:46:20;;;;;;;17.35;7.25;;;25.20;99.90;;;;;;5071388;28;20052;-59
2023/06/22 07:48:45;;;;;;;16.38;6.20;;;25.40;99.90;;;;;;5071534;28;20375;-59
2023/06/22 07:51:14;;;;;;;25.50;7.53;;;25.50;1.00;;;;;;5071385;28;20032;-60
2023/06/22 07:53:41;;;;;;;17.38;7.35;;;25.60;1.00;;;;;;5071407;28;20013;-59
2023/06/22 07:56:07;;;;;;;14.63;6.22;;;25.70;1.00;;;;;;5071325;28;20424;-57
2023/06/22 07:58:33;;;;;;;19.27;6.38;;;25.80;1.00;;;;;;5069849;28;20112;-59
2023/06/22 08:00:59;;;;;;;21.63;6.30;;;25.80;99.90;;;;;;5071469;28;20025;-59
2023/06/22 08:03:24;;;;;;;16.98;6.65;;;25.90;1.00;;;;;;5071188;28;20047;-59
2023/06/22 08:05:50;;;;;;;29.42;6.45;;;25.80;99.90;;;;;;5071126;28;20056;-59
2023/06/22 08:08:16;;;;;;;17.55;6.47;;;25.90;99.90;;;;;;5071746;28;20032;-59
2023/06/22 08:10:42;;;;;;;17.85;6.55;;;26.10;99.90;;;;;;5073844;28;20021;-60
2023/06/22 08:13:08;;;;;;;21.38;7.15;;;26.10;99.90;;;;;;5074943;28;20027;-59
2023/06/22 08:15:33;;;;;;;19.45;6.03;;;25.90;99.90;;;;;;5075173;28;20020;-59
2023/06/22 08:18:00;;;;;;;17.08;6.78;;;25.90;99.90;;;;;;5075212;28;20483;-59
2023/06/22 08:20:26;;;;;;;11.15;5.78;;;26.10;99.90;;;;;;5074079;28;20028;-59
2023/06/22 08:22:55;;;;;;;19.15;6.32;;;26.40;65.50;;;;;;5074917;28;20028;-59
2023/06/22 08:25:21;;;;;;;16.98;6.28;;;26.40;42.90;;;;;;5074918;28;20111;-59
2023/06/22 08:27:50;;;;;;;18.55;6.07;;;26.60;85.10;;;;;;5074876;28;20162;-59
2023/06/22 08:30:18;;;;;;;23.67;8.00;;;26.70;8.10;;;;;;5074694;28;20154;-59
2023/06/22 08:32:43;;;;;;;24.17;7.28;;;26.80;10.80;;;;;;5073574;28;20099;-60
2023/06/22 08:35:09;;;;;;;12.25;6.18;;;26.80;1.00;;;;;;5074387;28;20036;-59
2023/06/22 08:37:36;;;;;;;37.92;7.05;;;26.70;1.00;;;;;;5074645;28;20113;-59
2023/06/22 08:40:08;;;;;;;29.25;8.70;;;26.80;1.00;;;;;;5074717;28;20025;-60
2023/06/22 08:42:34;;;;;;;19.85;7.55;;;26.80;1.00;;;;;;5074667;28;20392;-59
2023/06/22 08:45:00;;;;;;;23.60;6.65;;;27.00;1.00;;;;;;5073130;28;20032;-60
2023/06/22 08:47:27;;;;;;;18.60;6.25;;;27.10;1.00;;;;;;5074310;28;20430;-60
2023/06/22 08:49:53;;;;;;;30.65;7.40;;;27.20;1.00;;;;;;5074452;28;20025;-59
2023/06/22 08:52:20;;;;;;;14.63;5.97;;;27.40;1.00;;;;;;5074085;28;20029;-60
2023/06/22 08:54:47;;;;;;;12.55;5.88;;;27.60;1.00;;;;;;5073906;28;20021;-58
2023/06/22 08:57:12;;;;;;;16.42;5.88;;;27.50;99.90;;;;;;5073847;28;20135;-59
2023/06/22 08:59:38;;;;;;;17.23;5.93;;;27.50;99.90;;;;;;5074326;28;20102;-59
2023/06/22 09:02:04;;;;;;;18.88;7.38;;;27.80;99.90;;;;;;5074265;28;20090;-59
2023/06/22 09:04:30;;;;;;;18.20;5.88;;;27.90;99.90;;;;;;5074087;28;20028;-60
2023/06/22 09:06:55;;;;;;;25.23;6.25;;;28.20;99.90;;;;;;5074123;28;20433;-59
2023/06/22 09:09:22;;;;;;;22.63;7.68;;;28.10;99.90;;;;;;5073805;28;20024;-59
2023/06/22 09:11:48;;;;;;;22.92;8.43;;;28.40;99.90;;;;;;5074050;28;20024;-60
2023/06/22 09:14:13;;;;;;;18.52;6.70;;;28.40;99.90;;;;;;5073839;28;20095;-59
2023/06/22 09:16:39;;;;;;;21.40;7.20;;;28.50;99.90;;;;;;5073947;28;20482;-60
2023/06/22 09:19:05;;;;;;;15.00;6.57;;;28.70;99.90;;;;;;5073728;28;20024;-59
2023/06/22 09:21:30;;;;;;;22.90;6.32;;;29.00;99.90;;;;;;5073680;28;20086;-59
2023/06/22 09:23:56;;;;;;;23.63;6.45;;;29.10;99.90;;;;;;5073789;28;20511;-60
2023/06/22 09:26:23;;;;;;;29.08;7.38;;;29.30;99.90;;;;;;5073606;28;20404;-60
2023/06/22 09:28:49;;;;;;;27.92;7.43;;;29.30;99.90;;;;;;5073784;28;20059;-60
2023/06/22 09:31:16;;;;;;;12.82;5.88;;;29.70;98.40;;;;;;5073625;28;21026;-59
2023/06/22 09:33:42;;;;;;;26.98;6.22;;;29.90;84.50;;;;;;5073564;28;20371;-60
2023/06/22 09:36:08;;;;;;;25.48;6.55;;;30.00;83.50;;;;;;5073319;28;20032;-59
2023/06/22 09:38:38;;;;;;;23.65;6.10;;;30.30;67.00;;;;;;5073775;28;20078;-59
2023/06/22 09:41:04;;;;;;;28.45;6.55;;;30.50;37.20;;;;;;5073583;28;20025;-60
2023/06/22 09:43:35;;;;;;;17.70;6.40;;;30.40;19.00;;;;;;5073303;28;20021;-59
2023/06/22 09:46:02;;;;;;;16.27;5.45;;;30.70;1.00;;;;;;5072634;28;20020;-60
2023/06/22 09:48:28;;;;;;;17.23;5.72;;;30.90;1.00;;;;;;5073333;28;20460;-60
2023/06/22 09:50:54;;;;;;;18.95;5.95;;;30.90;1.00;;;;;;5073038;28;20036;-60
2023/06/22 09:53:19;;;;;;;21.27;5.57;;;31.30;1.00;;;;;;5073108;28;20024;-59
2023/06/22 09:55:45;;;;;;;21.73;6.20;;;31.40;1.00;;;;;;5071748;28;20115;-59
2023/06/22 09:58:10;;;;;;;25.35;6.68;;;31.20;1.00;;;;;;5072666;28;20123;-59
2023/06/22 10:00:36;;;;;;;17.98;5.80;;;31.20;1.00;;;;;;5071986;28;20524;-59
2023/06/22 10:03:02;;;;;;;29.85;7.13;;;31.30;1.00;;;;;;5072723;28;20486;-60
2023/06/22 10:05:27;;;;;;;15.45;6.20;;;31.60;1.00;;;;;;5072673;28;20033;-59
2023/06/22 10:07:53;;;;;;;19.15;6.40;;;31.70;1.00;;;;;;5072984;28;20113;-59
2023/06/22 10:10:19;;;;;;;30.15;6.85;;;31.60;1.00;;;;;;5072727;28;20387;-59
2023/06/22 10:12:54;;;;;;;23.58;7.47;;;31.50;1.00;;;;;;5073010;28;20455;-59
2023/06/22 10:15:21;;;;;;;22.75;6.10;;;31.50;1.00;;;;;;5072712;28;20017;-59
2023/06/22 10:17:46;;;;;;;22.50;6.63;;;31.60;1.00;;;;;;5072779;28;20036;-59
2023/06/22 10:20:13;;;;;;;27.13;6.00;;;31.70;1.00;;;;;;5072022;28;20020;-59
2023/06/22 10:22:40;;;;;;;21.98;6.88;;;31.90;1.00;;;;;;5072340;28;20020;-59
2023/06/22 10:25:06;;;;;;;19.23;6.05;;;31.70;1.00;;;;;;5071932;28;20493;-59
2023/06/22 10:27:32;;;;;;;23.63;6.10;;;32.00;1.00;;;;;;5071936;28;20379;-59
2023/06/22 10:29:57;;;;;;;23.40;7.28;;;31.90;1.00;;;;;;5072010;28;20020;-59
2023/06/22 10:32:23;;;;;;;21.92;6.55;;;32.20;1.00;;;;;;5071654;28;20074;-59
2023/06/22 10:34:49;;;;;;;18.13;5.68;;;32.30;1.00;;;;;;5071798;28;20102;-59
2023/06/22 10:37:14;;;;;;;18.75;6.28;;;32.70;1.00;;;;;;5071551;28;20104;-59
2023/06/22 10:39:40;;;;;;;21.08;6.13;;;32.80;1.00;;;;;;5071656;28;20032;-59
2023/06/22 10:42:06;;;;;;;24.23;6.22;;;32.80;1.00;;;;;;5072362;28;20082;-60
2023/06/22 10:44:31;;;;;;;14.55;5.68;;;32.90;1.00;;;;;;5072195;28;20028;-59
2023/06/22 10:46:57;;;;;;;14.50;5.63;;;32.90;1.00;;;;;;5072139;28;20368;-58
2023/06/22 10:49:23;;;;;;;13.77;6.13;;;32.90;1.00;;;;;;5070267;28;20685;-59
2023/06/22 10:51:48;;;;;;;14.65;5.65;;;33.00;1.00;;;;;;5072242;28;20456;-59
2023/06/22 10:54:39;;;;;;;21.08;6.43;;;33.20;1.00;;;;;;5071899;28;20500;-58
2023/06/22 10:57:05;;;;;;;14.07;6.25;;;33.50;1.00;;;;;;5071793;28;20043;-59
2023/06/22 10:59:30;;;;;;;18.92;5.65;;;33.50;1.00;;;;;;5071806;28;20029;-59
2023/06/22 11:01:57;;;;;;;25.77;5.72;;;33.60;1.00;;;;;;5071954;28;20024;-59
2023/06/22 11:04:23;;;;;;;22.35;6.00;;;33.80;1.00;;;;;;5071875;28;20028;-59
2023/06/22 11:06:49;;;;;;;21.40;6.78;;;34.10;1.00;;;;;;5071900;28;20425;-58
2023/06/22 11:09:20;;;;;;;24.58;6.30;;;34.30;99.90;;;;;;5071816;28;20048;-58
2023/06/22 11:11:50;;;;;;;19.45;6.28;;;34.00;99.90;;;;;;5071878;28;20017;-58
2023/06/22 11:14:15;;;;;;;24.33;6.30;;;34.10;99.90;;;;;;5071832;28;20024;-58
2023/06/22 11:16:41;;;;;;;24.75;6.22;;;34.00;99.90;;;;;;5071653;28;20098;-58
2023/06/22 11:19:07;;;;;;;35.65;7.22;;;33.80;99.90;;;;;;5071686;28;20051;-58
2023/06/22 11:21:32;;;;;;;23.27;6.60;;;33.60;99.90;;;;;;5071670;28;20081;-58
2023/06/22 11:23:59;;;;;;;18.52;5.95;;;33.90;99.90;;;;;;5071769;28;20028;-58
2023/06/22 11:26:27;;;;;;;24.17;5.45;;;33.90;99.90;;;;;;5070285;28;20068;-59
2023/06/22 11:28:53;;;;;;;19.55;5.75;;;34.20;99.90;;;;;;5071855;28;20020;-58
2023/06/22 11:31:18;;;;;;;18.75;6.25;;;34.60;99.90;;;;;;5071660;28;20016;-58
2023/06/22 11:33:47;;;;;;;22.10;5.95;;;34.80;99.90;;;;;;5071629;28;20032;-58
2023/06/22 11:36:13;;;;;;;23.60;7.03;;;35.10;99.90;;;;;;5071549;28;20032;-58
2023/06/22 11:38:39;;;;;;;26.17;6.10;;;35.30;99.90;;;;;;5071696;28;20458;-59
2023/06/22 11:41:09;;;;;;;21.95;5.93;;;35.30;99.90;;;;;;5071530;28;20096;-59
2023/06/22 11:43:35;;;;;;;22.55;5.97;;;34.90;99.90;;;;;;5070527;28;20075;-59
2023/06/22 11:46:03;;;;;;;23.73;7.60;;;34.80;99.90;;;;;;5071540;28;20048;-58
2023/06/22 11:48:29;;;;;;;22.75;5.90;;;35.00;99.90;;;;;;5071458;28;20016;-59
2023/06/22 11:50:55;;;;;;;18.90;6.63;;;35.00;99.90;;;;;;5071424;28;20031;-58
2023/06/22 11:53:24;;;;;;;22.92;6.68;;;35.40;99.90;;;;;;5071279;28;20039;-59
2023/06/22 11:55:50;;;;;;;22.42;6.63;;;35.50;99.90;;;;;;5070811;28;20024;-59
2023/06/22 11:58:16;;;;;;;21.88;6.07;;;35.80;99.90;;;;;;5070418;28;20499;-58
2023/06/22 12:00:42;;;;;;;23.27;6.40;;;35.90;99.90;;;;;;5070360;28;20036;-58
2023/06/22 12:03:09;;;;;;;23.67;6.70;;;35.50;99.90;;;;;;5070851;28;20029;-58
2023/06/22 12:05:35;;;;;;;26.00;6.65;;;34.90;99.90;;;;;;5066232;28;20021;-58
2023/06/22 12:08:01;;;;;;;24.98;6.45;;;34.70;99.90;;;;;;5069148;28;20082;-58
2023/06/22 12:10:29;;;;;;;20.58;7.45;;;34.40;99.90;;;;;;5070324;28;20032;-58
2023/06/22 12:12:55;;;;;;;24.65;6.60;;;34.90;99.90;;;;;;5070172;28;20019;-58
2023/06/22 12:15:21;;;;;;;26.83;6.57;;;34.90;99.90;;;;;;5070909;28;20016;-58
2023/06/22 12:17:48;;;;;;;18.77;6.53;;;35.60;99.90;;;;;;5071004;28;20112;-57
2023/06/22 12:20:13;;;;;;;26.42;7.03;;;36.00;99.90;;;;;;5070670;28;20024;-58
2023/06/22 12:22:40;;;;;;;18.70;5.97;;;36.50;99.90;;;;;;5070757;28;20043;-59
2023/06/22 12:25:07;;;;;;;19.05;5.97;;;37.10;99.90;;;;;;5069099;28;20112;-58
2023/06/22 12:27:33;;;;;;;23.88;6.05;;;37.30;99.90;;;;;;5070552;28;20506;-58
2023/06/22 12:29:59;;;;;;;20.83;6.15;;;37.30;99.90;;;;;;5070679;28;20025;-58
2023/06/22 12:32:25;;;;;;;35.92;7.10;;;37.00;99.90;;;;;;5070311;28;20139;-58
2023/06/22 12:34:51;;;;;;;34.97;6.40;;;36.80;99.90;;;;;;5070794;28;20075;-58
2023/06/22 12:37:16;;;;;;;28.23;6.15;;;36.80;99.90;;;;;;5070624;28;20060;-59
2023/06/22 12:39:42;;;;;;;27.73;6.72;;;37.60;99.90;;;;;;5070809;28;20107;-58
2023/06/22 12:42:08;;;;;;;26.85;6.60;;;38.30;99.90;;;;;;5070363;28;20116;-59